Time;durP1;ratioP1;P1;durP2;ratioP2;P2;SDS_P1;SDS_P2;PMS_P1;PMS_P2;Temp;Humidity;BMP_temperature;BMP_pressure;BME280_temperature;BME280_humidity;BME280_pressure;Samples;Min_cycle;Max_cycle;Signal;HPM_P1;HPM_P2
2022/05/07 00:00:33;;;;;;;26.23;14.10;;;;;;;10.95;84.61;102143.31;5023848;28;20385;-75
2022/05/07 00:02:58;;;;;;;26.85;14.00;;;;;;;10.93;84.83;102145.22;5045754;28;20033;-75
2022/05/07 00:05:24;;;;;;;26.55;13.63;;;;;;;10.89;85.28;102142.78;5029324;28;20085;-75
2022/05/07 00:07:50;;;;;;;26.23;13.75;;;;;;;10.82;85.30;102145.81;5052526;28;20021;-75
2022/05/07 00:10:16;;;;;;;29.02;14.52;;;;;;;10.80;85.58;102136.94;5052284;28;20108;-75
2022/05/07 00:12:41;;;;;;;26.65;14.25;;;;;;;10.80;85.72;102131.53;5052030;28;20036;-75
2022/05/07 00:15:07;;;;;;;26.45;14.20;;;;;;;10.78;85.74;102129.91;5051606;28;20029;-75
2022/05/07 00:20:17;;;;;;;26.35;14.43;;;;;;;10.73;85.40;102131.97;5050253;28;20055;-75
2022/05/07 00:22:42;;;;;;;26.63;14.68;;;;;;;10.74;85.93;102131.03;5035536;28;20025;-75
2022/05/07 00:25:08;;;;;;;25.23;13.57;;;;;;;10.72;85.60;102133.78;5052412;28;20032;-75
2022/05/07 00:27:33;;;;;;;24.75;13.45;;;;;;;10.70;85.60;102135.69;5033919;28;20024;-75
2022/05/07 00:29:58;;;;;;;28.30;14.75;;;;;;;10.69;85.90;102135.75;5050705;28;20032;-75
2022/05/07 00:32:24;;;;;;;26.13;14.77;;;;;;;10.63;86.23;102132.47;5051659;28;20035;-75
2022/05/07 00:34:49;;;;;;;26.08;14.82;;;;;;;10.57;86.12;102124.72;5049807;28;20482;-75
2022/05/07 00:37:14;;;;;;;26.02;14.23;;;;;;;10.55;86.38;102123.06;5051724;28;20060;-75
2022/05/07 00:39:39;;;;;;;26.35;14.73;;;;;;;10.53;86.39;102122.25;5033114;28;20550;-75
2022/05/07 00:42:06;;;;;;;29.77;15.38;;;;;;;10.52;86.41;102128.59;5052311;28;20032;-75
2022/05/07 00:44:33;;;;;;;26.55;15.90;;;;;;;10.52;86.90;102118.72;5051534;28;20025;-75
2022/05/07 00:47:04;;;;;;;29.45;15.98;;;;;;;10.51;86.47;102116.13;5051727;28;20040;-75
2022/05/07 00:49:29;;;;;;;27.65;16.33;;;;;;;10.49;86.72;102119.75;5020807;28;20073;-75
2022/05/07 00:51:55;;;;;;;27.65;16.05;;;;;;;10.53;86.65;102114.19;5050749;28;20396;-75
2022/05/07 00:54:23;;;;;;;26.90;15.05;;;;;;;10.54;87.20;102115.94;5033316;28;20029;-75
2022/05/07 00:56:48;;;;;;;27.02;14.95;;;;;;;10.53;87.31;102111.50;5051762;28;20490;-75
2022/05/07 00:59:13;;;;;;;27.50;16.55;;;;;;;10.52;87.30;102117.84;5034046;28;20029;-75
2022/05/07 01:01:38;;;;;;;26.73;15.85;;;;;;;10.48;87.67;102115.34;5036774;28;20032;-75
2022/05/07 01:04:04;;;;;;;26.92;16.15;;;;;;;10.49;87.70;102113.50;5020320;28;20049;-75
2022/05/07 01:06:30;;;;;;;28.25;17.15;;;;;;;10.48;87.61;102115.34;5050986;28;20036;-75
2022/05/07 01:08:55;;;;;;;29.92;17.52;;;;;;;10.46;87.74;102109.16;5048907;28;20024;-75
2022/05/07 01:11:21;;;;;;;27.58;17.90;;;;;;;10.48;87.98;102109.97;5030834;28;20553;-75
2022/05/07 01:13:47;;;;;;;28.92;17.05;;;;;;;10.48;87.72;102104.59;5052332;28;20082;-75
2022/05/07 01:16:13;;;;;;;29.80;17.67;;;;;;;10.49;87.52;102109.00;5049989;28;20033;-75
2022/05/07 01:18:40;;;;;;;27.77;16.77;;;;;;;10.52;87.66;102107.97;5048998;28;20044;-75
2022/05/07 01:21:10;;;;;;;27.50;16.40;;;;;;;10.52;87.62;102101.72;5048405;28;20163;-75
2022/05/07 01:23:36;;;;;;;28.55;17.38;;;;;;;10.49;87.69;102092.00;5051961;28;20049;-75
2022/05/07 01:26:02;;;;;;;29.55;18.55;;;;;;;10.48;87.54;102107.28;5048087;28;20545;-75
2022/05/07 01:28:27;;;;;;;29.35;18.17;;;;;;;10.47;87.40;102100.16;5049850;28;20024;-75
2022/05/07 01:30:52;;;;;;;27.67;17.58;;;;;;;10.45;87.25;102096.69;5049811;28;20282;-75
2022/05/07 01:33:17;;;;;;;27.20;17.25;;;;;;;10.43;87.80;102089.66;5051285;28;20111;-75
2022/05/07 01:35:43;;;;;;;27.13;17.30;;;;;;;10.40;87.78;102093.34;5049060;28;20021;-75
2022/05/07 01:38:08;;;;;;;29.63;17.65;;;;;;;10.38;87.99;102089.91;5051385;28;20474;-75
2022/05/07 01:40:33;;;;;;;26.63;16.85;;;;;;;10.37;87.91;102088.16;5050351;28;20375;-75
2022/05/07 01:42:58;;;;;;;27.15;17.48;;;;;;;10.38;88.26;102089.91;5034258;28;20064;-75
2022/05/07 01:45:24;;;;;;;28.55;17.15;;;;;;;10.39;87.38;102090.75;5032013;28;20017;-75
2022/05/07 01:50:33;;;;;;;27.63;17.27;;;;;;;10.39;87.80;102094.28;5050342;28;20502;-75
2022/05/07 01:52:58;;;;;;;26.58;15.77;;;;;;;10.39;87.81;102085.38;5049555;28;20097;-75
2022/05/07 01:55:23;;;;;;;27.80;16.35;;;;;;;10.37;87.71;102093.53;5049385;28;20087;-75
2022/05/07 01:57:48;;;;;;;29.17;16.65;;;;;;;10.35;87.78;102087.34;5049167;28;20052;-76
2022/05/07 02:00:14;;;;;;;29.17;16.52;;;;;;;10.33;87.82;102086.53;5023609;28;20033;-76
2022/05/07 02:02:39;;;;;;;29.48;16.67;;;;;;;10.32;88.18;102082.97;5042016;28;20024;-75
2022/05/07 02:05:05;;;;;;;27.15;15.90;;;;;;;10.30;88.35;102079.50;5029817;28;20102;-76
2022/05/07 02:07:30;;;;;;;27.63;16.88;;;;;;;10.29;88.54;102074.19;5032406;28;20060;-76
2022/05/07 02:09:55;;;;;;;26.77;17.40;;;;;;;10.29;88.62;102075.09;5050220;28;20462;-76
2022/05/07 02:12:21;;;;;;;26.75;16.08;;;;;;;10.31;88.99;102077.69;5028359;28;20029;-76
2022/05/07 02:14:46;;;;;;;26.83;16.58;;;;;;;10.31;88.64;102077.69;5030872;28;20043;-76
2022/05/07 02:17:11;;;;;;;28.63;15.85;;;;;;;10.32;89.21;102077.59;5050366;28;20476;-76
2022/05/07 02:19:36;;;;;;;26.52;15.98;;;;;;;10.34;89.00;102069.50;5031188;28;20029;-76
2022/05/07 02:22:02;;;;;;;27.02;16.60;;;;;;;10.34;88.97;102066.81;5033260;28;20155;-76
2022/05/07 02:24:27;;;;;;;28.65;16.98;;;;;;;10.33;89.44;102075.78;5049394;28;20033;-76
2022/05/07 02:26:52;;;;;;;27.88;17.20;;;;;;;10.32;88.82;102074.03;5049200;28;20086;-76
2022/05/07 02:29:18;;;;;;;28.05;16.80;;;;;;;10.33;88.78;102073.09;5046959;28;20033;-76
2022/05/07 02:32:03;;;;;;;27.48;17.40;;;;;;;10.32;88.39;102068.66;5043850;28;20033;-76
2022/05/07 02:34:30;;;;;;;26.83;16.27;;;;;;;10.31;88.42;102072.31;5047932;28;20029;-76
2022/05/07 02:36:55;;;;;;;27.88;17.48;;;;;;;10.31;88.98;102069.63;5018861;28;20040;-76
2022/05/07 02:39:20;;;;;;;27.60;16.35;;;;;;;10.32;89.05;102064.19;5041797;28;20029;-76
2022/05/07 02:44:30;;;;;;;26.60;16.05;;;;;;;10.32;89.11;102060.59;5047029;28;20032;-76
2022/05/07 02:46:55;;;;;;;26.80;16.33;;;;;;;10.32;89.28;102060.59;5045676;28;20396;-76
2022/05/07 02:49:20;;;;;;;28.10;16.85;;;;;;;10.32;89.74;102052.53;5049832;28;20029;-76
2022/05/07 02:51:45;;;;;;;27.77;16.85;;;;;;;10.34;89.43;102055.19;5045952;28;20078;-76
2022/05/07 02:54:11;;;;;;;29.45;18.60;;;;;;;10.36;89.54;102056.84;5030538;28;20037;-76
2022/05/07 02:56:36;;;;;;;32.53;17.95;;;;;;;10.35;88.87;102052.41;5047345;28;20483;-76
2022/05/07 02:59:01;;;;;;;29.80;18.63;;;;;;;10.37;89.53;102047.84;5028387;28;20055;-76
2022/05/07 03:01:27;;;;;;;27.50;18.33;;;;;;;10.40;88.44;102049.50;5035823;28;20040;-75
2022/05/07 03:03:52;;;;;;;30.08;20.38;;;;;;;10.43;89.09;102050.19;5046135;28;20052;-75
2022/05/07 03:06:17;;;;;;;30.30;19.15;;;;;;;10.43;88.13;102050.19;5046682;28;20025;-75
2022/05/07 03:08:42;;;;;;;32.42;20.83;;;;;;;10.46;89.32;102055.41;5049887;28;20039;-75
2022/05/07 03:11:08;;;;;;;32.13;19.52;;;;;;;10.47;88.70;102053.59;5047921;28;20529;-75
2022/05/07 03:13:33;;;;;;;32.17;19.85;;;;;;;10.48;89.13;102042.75;5028285;28;20054;-75
2022/05/07 03:15:58;;;;;;;31.17;21.20;;;;;;;10.47;89.39;102046.38;5048862;28;20469;-75
2022/05/07 03:18:23;;;;;;;30.10;21.02;;;;;;;10.47;89.31;102057.16;5050663;28;20090;-75
2022/05/07 03:20:49;;;;;;;32.72;22.58;;;;;;;10.46;89.05;102050.03;5048901;28;20029;-75
2022/05/07 03:23:14;;;;;;;30.98;20.45;;;;;;;10.47;89.29;102049.09;5032739;28;20060;-75
2022/05/07 03:25:39;;;;;;;32.63;19.95;;;;;;;10.47;88.65;102045.53;5048808;28;20017;-75
2022/05/07 03:28:05;;;;;;;32.58;21.50;;;;;;;10.45;88.17;102047.41;5050392;28;20120;-75
2022/05/07 03:30:30;;;;;;;32.97;21.80;;;;;;;10.47;89.09;102056.28;5048820;28;20032;-75
2022/05/07 03:32:55;;;;;;;34.45;21.67;;;;;;;10.45;88.62;102051.00;5048896;28;20484;-75
2022/05/07 03:35:21;;;;;;;32.25;22.65;;;;;;;10.46;88.83;102055.41;5048730;28;20072;-75
2022/05/07 03:37:46;;;;;;;33.30;22.58;;;;;;;10.44;89.26;102059.09;5029235;28;20037;-75
2022/05/07 03:40:11;;;;;;;36.72;25.27;;;;;;;10.44;89.16;102062.69;5047622;28;20032;-75
2022/05/07 03:42:37;;;;;;;34.90;25.13;;;;;;;10.43;89.45;102058.25;5027620;28;20048;-75
2022/05/07 03:45:02;;;;;;;36.92;23.73;;;;;;;10.41;88.90;102062.84;5048211;28;20116;-76
2022/05/07 03:47:28;;;;;;;33.53;21.67;;;;;;;10.40;89.07;102058.41;5049674;28;20101;-76
2022/05/07 03:49:53;;;;;;;34.92;23.25;;;;;;;10.36;89.47;102056.84;5032916;28;20135;-76
2022/05/07 03:55:02;;;;;;;37.55;23.23;;;;;;;10.34;89.45;102066.81;5052083;28;20070;-76
2022/05/07 03:57:27;;;;;;;33.92;22.77;;;;;;;10.32;89.70;102063.28;5052465;28;20445;-76
2022/05/07 03:59:53;;;;;;;32.15;22.42;;;;;;;10.32;89.57;102074.03;5046228;28;20031;-76
2022/05/07 04:02:18;;;;;;;32.47;21.85;;;;;;;10.34;88.97;102077.56;5039677;28;20036;-76
2022/05/07 04:04:44;;;;;;;33.00;23.20;;;;;;;10.35;89.22;102083.78;5049651;28;20385;-75
2022/05/07 04:07:09;;;;;;;34.00;21.35;;;;;;;10.33;89.30;102081.16;5052769;28;20124;-75
2022/05/07 04:09:36;;;;;;;31.90;21.15;;;;;;;10.33;89.19;102078.47;5028721;28;20422;-75
2022/05/07 04:12:01;;;;;;;35.40;21.90;;;;;;;10.33;88.66;102081.16;5049292;28;20025;-75
2022/05/07 04:14:26;;;;;;;32.55;20.13;;;;;;;10.33;88.96;102075.78;5051342;28;20037;-75
2022/05/07 04:16:51;;;;;;;30.90;22.23;;;;;;;10.37;89.38;102079.22;5049968;28;20032;-75
2022/05/07 04:19:17;;;;;;;32.35;21.50;;;;;;;10.37;88.72;102077.41;5053202;28;20075;-75
2022/05/07 04:21:42;;;;;;;33.33;21.67;;;;;;;10.40;89.69;102079.91;5034400;28;20373;-75
2022/05/07 04:24:07;;;;;;;31.70;21.05;;;;;;;10.43;89.66;102082.44;5034916;28;20037;-75
2022/05/07 04:26:32;;;;;;;32.95;21.27;;;;;;;10.47;89.24;102078.66;5051323;28;20043;-75
2022/05/07 04:28:58;;;;;;;31.48;20.95;;;;;;;10.47;89.19;102083.16;5052902;28;20050;-75
2022/05/07 04:31:24;;;;;;;34.75;21.17;;;;;;;10.48;88.95;102085.78;5050084;28;20090;-75
2022/05/07 04:33:50;;;;;;;33.10;23.00;;;;;;;10.50;88.76;102074.94;5052371;28;20362;-75
2022/05/07 04:36:15;;;;;;;32.78;22.17;;;;;;;10.54;89.26;102078.31;5051045;28;20037;-75
2022/05/07 04:38:40;;;;;;;31.30;22.25;;;;;;;10.56;89.67;102076.44;5052201;28;20569;-75
2022/05/07 04:41:07;;;;;;;36.58;23.92;;;;;;;10.58;89.85;102074.50;5050379;28;20025;-75
2022/05/07 04:43:32;;;;;;;32.28;22.08;;;;;;;10.62;89.84;102081.47;5053217;28;20616;-75
2022/05/07 04:45:57;;;;;;;32.53;22.63;;;;;;;10.65;89.12;102086.69;5048690;28;20387;-75
2022/05/07 04:48:23;;;;;;;33.30;22.10;;;;;;;10.66;88.33;102083.06;5034580;28;20057;-75
2022/05/07 04:50:48;;;;;;;31.02;21.58;;;;;;;10.66;89.07;102093.81;5049324;28;20033;-75
2022/05/07 04:53:13;;;;;;;36.85;23.25;;;;;;;10.68;88.63;102091.88;5032963;28;20025;-75
2022/05/07 04:55:38;;;;;;;33.47;22.55;;;;;;;10.72;90.23;102090.78;5048874;28;20071;-75
2022/05/07 04:58:04;;;;;;;34.25;22.42;;;;;;;10.73;89.88;102092.53;5032865;28;20024;-75
2022/05/07 05:00:29;;;;;;;33.40;24.95;;;;;;;10.76;89.82;102100.41;5023369;28;20028;-76
2022/05/07 05:02:54;;;;;;;33.95;24.10;;;;;;;10.78;89.86;102098.50;5043085;28;20033;-75
2022/05/07 05:05:19;;;;;;;33.22;23.40;;;;;;;10.79;90.03;102097.56;5049062;28;20504;-75
2022/05/07 05:07:45;;;;;;;32.35;23.10;;;;;;;10.83;90.37;102101.81;5051031;28;20025;-75
2022/05/07 05:10:10;;;;;;;34.55;23.92;;;;;;;10.88;90.13;102108.75;5050536;28;20063;-75
2022/05/07 05:12:36;;;;;;;36.53;24.98;;;;;;;10.91;89.97;102108.59;5048363;28;20951;-76
2022/05/07 05:15:01;;;;;;;35.63;26.15;;;;;;;10.92;89.55;102108.53;5051703;28;20044;-76
2022/05/07 05:17:27;;;;;;;37.10;25.92;;;;;;;10.95;89.48;102113.75;5050697;28;20529;-76
2022/05/07 05:19:53;;;;;;;35.33;26.35;;;;;;;10.97;89.89;102119.88;5051248;28;20075;-76
2022/05/07 05:22:18;;;;;;;62.22;48.13;;;;;;;11.02;88.89;102128.59;5049327;28;20511;-76
2022/05/07 05:24:43;;;;;;;49.60;39.65;;;;;;;11.05;87.95;102134.75;5048707;28;20542;-76
2022/05/07 05:27:08;;;;;;;38.42;30.58;;;;;;;11.07;87.14;102131.03;5033112;28;20032;-76
2022/05/07 05:29:34;;;;;;;44.20;31.48;;;;;;;11.10;87.88;102135.34;5033334;28;20028;-76
2022/05/07 05:31:59;;;;;;;45.03;30.25;;;;;;;11.14;88.33;102136.91;5050257;28;20032;-76
2022/05/07 05:34:25;;;;;;;41.33;30.60;;;;;;;11.18;88.74;102133.97;5049374;28;20581;-76
2022/05/07 05:36:50;;;;;;;44.45;32.03;;;;;;;11.21;88.28;102132.09;5049803;28;20025;-76
2022/05/07 05:39:16;;;;;;;40.78;29.73;;;;;;;11.25;87.24;102134.50;5051555;28;20031;-76
2022/05/07 05:41:44;;;;;;;40.50;31.58;;;;;;;11.29;86.52;102140.56;5049735;28;20036;-76
2022/05/07 05:44:09;;;;;;;43.35;30.77;;;;;;;11.35;87.08;102141.13;5050174;28;20029;-76
2022/05/07 05:46:34;;;;;;;41.08;30.95;;;;;;;11.40;86.88;102138.16;5050615;28;20468;-76
2022/05/07 05:48:59;;;;;;;41.33;30.98;;;;;;;11.48;86.16;102141.31;5050435;28;20025;-76
2022/05/07 05:51:25;;;;;;;39.90;32.28;;;;;;;11.53;86.76;102144.59;5046751;28;20392;-76
2022/05/07 05:53:51;;;;;;;42.90;31.70;;;;;;;11.62;86.40;102136.94;5051354;28;20319;-76
2022/05/07 05:56:16;;;;;;;40.45;32.38;;;;;;;11.70;86.32;102142.78;5051937;28;20108;-76
2022/05/07 05:58:41;;;;;;;41.63;33.20;;;;;;;11.78;86.57;102148.56;5052294;28;20112;-76
2022/05/07 06:01:07;;;;;;;43.35;30.35;;;;;;;11.87;86.77;102136.41;5037245;28;20039;-76
2022/05/07 06:03:33;;;;;;;41.47;30.40;;;;;;;11.96;86.69;102138.63;5023650;28;20427;-76
2022/05/07 06:05:59;;;;;;;45.03;31.98;;;;;;;12.04;86.16;102143.53;5050005;28;20037;-76
2022/05/07 06:08:25;;;;;;;39.30;29.05;;;;;;;12.12;85.24;102141.25;5051718;28;20121;-76
2022/05/07 06:10:52;;;;;;;40.92;29.55;;;;;;;12.19;84.95;102133.66;5029601;28;20036;-78
2022/05/07 06:13:20;;;;;;;41.30;29.63;;;;;;;12.26;82.79;102143.13;5044891;28;20570;-75
2022/05/07 06:15:51;;;;;;;35.35;25.77;;;;;;;12.34;81.75;102138.16;5052001;28;20108;-76
2022/05/07 06:18:16;;;;;;;36.75;26.58;;;;;;;12.44;82.91;102151.94;5052803;28;20115;-76
2022/05/07 06:20:42;;;;;;;34.17;26.13;;;;;;;12.50;81.44;102145.31;5017545;28;20544;-76
2022/05/07 06:23:07;;;;;;;33.65;26.33;;;;;;;12.55;81.07;102143.22;5032536;28;20067;-76
2022/05/07 06:28:16;;;;;;;35.45;24.13;;;;;;;12.68;80.46;102148.69;5050973;28;20044;-76
2022/05/07 06:30:41;;;;;;;39.47;24.25;;;;;;;12.72;79.08;102156.53;5050088;28;20041;-76
2022/05/07 06:33:06;;;;;;;37.97;25.13;;;;;;;12.80;79.90;102157.84;5050198;28;20029;-77
2022/05/07 06:35:33;;;;;;;41.15;25.67;;;;;;;12.86;80.83;102152.09;5049833;28;20103;-76
2022/05/07 06:37:58;;;;;;;40.97;26.02;;;;;;;12.90;80.02;102151.81;5048954;28;20059;-76
2022/05/07 06:40:24;;;;;;;37.38;25.23;;;;;;;12.96;79.45;102157.78;5049676;28;20502;-76
2022/05/07 06:42:49;;;;;;;35.70;26.63;;;;;;;12.99;79.00;102152.19;5032711;28;20108;-77
2022/05/07 06:45:15;;;;;;;43.58;26.50;;;;;;;13.05;79.44;102157.22;5050007;28;20028;-77
2022/05/07 06:47:40;;;;;;;38.65;27.35;;;;;;;13.09;80.90;102159.63;5029079;28;20036;-76
2022/05/07 06:50:07;;;;;;;38.90;28.13;;;;;;;13.16;80.64;102161.94;5050012;28;20028;-77
2022/05/07 06:52:32;;;;;;;37.58;25.33;;;;;;;13.23;79.62;102160.56;5031519;28;20512;-76
2022/05/07 06:54:57;;;;;;;40.40;25.17;;;;;;;13.29;80.07;102160.19;5054329;28;20028;-77
2022/05/07 06:57:25;;;;;;;36.88;25.33;;;;;;;13.37;79.76;102167.84;5050443;28;20024;-76
2022/05/07 06:59:51;;;;;;;39.10;24.42;;;;;;;13.43;79.79;102157.50;5046066;28;20017;-76
2022/05/07 07:02:16;;;;;;;33.53;23.58;;;;;;;13.49;79.68;102155.38;5035427;28;20039;-75
2022/05/07 07:04:41;;;;;;;39.08;25.35;;;;;;;13.55;78.83;102160.38;5048405;28;20052;-75
2022/05/07 07:07:07;;;;;;;33.25;23.73;;;;;;;13.61;78.93;102165.38;5050486;28;20016;-76
2022/05/07 07:09:33;;;;;;;36.17;23.48;;;;;;;13.67;77.87;102164.09;5049648;28;20487;-76
2022/05/07 07:11:58;;;;;;;35.38;23.38;;;;;;;13.72;78.62;102165.56;5023988;28;20036;-76
2022/05/07 07:14:23;;;;;;;37.65;24.38;;;;;;;13.77;78.88;102160.69;5026901;28;20032;-76
2022/05/07 07:16:50;;;;;;;35.17;24.85;;;;;;;13.85;78.74;102157.50;5048276;28;20431;-76
2022/05/07 07:19:16;;;;;;;43.88;27.02;;;;;;;13.89;76.66;102161.72;5028627;28;20021;-77
2022/05/07 07:21:42;;;;;;;38.83;25.30;;;;;;;13.93;76.84;102159.69;5045852;28;20330;-77
2022/05/07 07:24:08;;;;;;;36.97;24.00;;;;;;;13.95;76.44;102155.91;5053829;28;20052;-69
2022/05/07 07:26:33;;;;;;;37.42;23.60;;;;;;;13.98;76.48;102161.13;5052768;28;20063;-55
2022/05/07 07:28:58;;;;;;;39.75;26.30;;;;;;;14.05;76.98;102158.00;5053594;28;20033;-56
2022/05/07 07:31:24;;;;;;;35.22;25.00;;;;;;;14.08;76.24;102158.66;5052510;28;20021;-72
2022/05/07 07:33:49;;;;;;;32.67;23.25;;;;;;;14.13;75.82;102158.38;5054292;28;20094;-73
2022/05/07 07:36:14;;;;;;;35.08;23.58;;;;;;;14.17;74.42;102157.16;5054191;28;20032;-68
2022/05/07 07:38:39;;;;;;;36.72;22.63;;;;;;;14.23;75.07;102158.59;5054561;28;20427;-77
2022/05/07 07:41:05;;;;;;;33.33;21.23;;;;;;;14.27;74.14;102155.56;5053871;28;20036;-78
2022/05/07 07:43:31;;;;;;;33.90;22.52;;;;;;;14.36;74.60;102145.94;5054897;28;20028;-77
2022/05/07 07:48:41;;;;;;;36.83;23.73;;;;;;;14.57;74.90;102156.25;5054050;28;20408;-76
2022/05/07 07:51:07;;;;;;;38.47;24.70;;;;;;;14.61;73.45;102156.00;5053778;28;20028;-73
2022/05/07 07:53:33;;;;;;;35.15;24.85;;;;;;;14.67;74.11;102155.56;5052730;28;20029;-78
2022/05/07 07:55:59;;;;;;;36.28;23.80;;;;;;;14.70;73.28;102159.00;5053811;28;20039;-76
2022/05/07 07:58:24;;;;;;;35.40;23.08;;;;;;;14.76;73.27;102154.06;5054039;28;20116;-76
2022/05/07 08:00:50;;;;;;;36.47;22.52;;;;;;;14.80;71.88;102158.28;5024497;28;20456;-76
2022/05/07 08:03:17;;;;;;;31.95;20.63;;;;;;;14.87;70.86;102157.84;5045702;28;20112;-75
2022/05/07 08:05:45;;;;;;;32.75;19.92;;;;;;;14.96;70.71;102152.63;5051860;28;20041;-75
2022/05/07 08:13:42;;;;;;;33.33;20.08;;;;;;;15.13;70.78;102147.88;5053522;28;20059;-75
2022/05/07 08:16:07;;;;;;;33.65;18.45;;;;;;;15.18;68.98;102153.78;5051878;28;20499;-75
2022/05/07 08:18:33;;;;;;;31.65;18.10;;;;;;;15.20;68.26;102150.00;5052476;28;20029;-75
2022/05/07 08:20:59;;;;;;;33.80;19.60;;;;;;;15.26;69.29;102150.56;5047521;28;20640;-76
2022/05/07 08:23:27;;;;;;;33.78;18.92;;;;;;;15.26;67.09;102151.41;5035944;28;20031;-76
2022/05/07 08:25:53;;;;;;;29.70;18.73;;;;;;;15.29;67.42;102155.75;5054109;28;20116;-76
2022/05/07 08:28:19;;;;;;;30.52;19.40;;;;;;;15.30;69.66;102157.44;5054152;28;20114;-76
2022/05/07 08:30:44;;;;;;;34.20;19.23;;;;;;;15.33;66.73;102163.53;5052432;28;20111;-76
2022/05/07 08:33:10;;;;;;;29.45;18.08;;;;;;;15.37;67.49;102164.16;5054136;28;20033;-76
2022/05/07 08:35:35;;;;;;;33.63;19.55;;;;;;;15.45;67.49;102158.22;5036064;28;20028;-76
2022/05/07 08:38:00;;;;;;;33.17;20.35;;;;;;;15.45;66.52;102158.22;5036036;28;20025;-76
2022/05/07 08:40:27;;;;;;;32.55;18.77;;;;;;;15.50;66.07;102166.84;5054495;28;20025;-76
2022/05/07 08:42:54;;;;;;;35.20;19.02;;;;;;;15.57;67.23;102167.28;5019750;28;20033;-76
2022/05/07 08:45:19;;;;;;;35.20;19.63;;;;;;;15.67;66.57;102166.47;5053919;28;20383;-76
2022/05/07 08:47:44;;;;;;;34.85;19.65;;;;;;;15.71;64.81;102167.09;5035720;28;20112;-76
2022/05/07 08:50:13;;;;;;;32.00;18.85;;;;;;;15.74;64.43;102166.91;5053874;28;20414;-76
2022/05/07 08:52:41;;;;;;;33.72;20.27;;;;;;;15.79;64.94;102163.88;5053536;28;20025;-76
2022/05/07 08:55:07;;;;;;;32.17;18.25;;;;;;;15.86;65.26;102157.88;5035799;28;20033;-76
2022/05/07 08:57:32;;;;;;;30.52;16.88;;;;;;;16.00;66.09;102156.84;5053528;28;20115;-76
2022/05/07 08:59:58;;;;;;;35.60;19.38;;;;;;;16.10;65.38;102156.13;5047762;28;20055;-76
2022/05/07 09:02:23;;;;;;;35.75;18.63;;;;;;;16.21;63.76;102153.47;5042318;28;20032;-75
2022/05/07 09:04:55;;;;;;;33.53;17.80;;;;;;;16.33;63.57;102154.38;5052083;28;20061;-75
2022/05/07 09:07:20;;;;;;;34.05;19.05;;;;;;;16.45;63.69;102156.13;5052378;28;20115;-76
2022/05/07 09:09:50;;;;;;;33.17;18.70;;;;;;;16.55;63.44;102156.28;5035517;28;20120;-76
2022/05/07 09:12:23;;;;;;;37.83;19.92;;;;;;;16.57;64.25;102148.88;5035438;28;20025;-76
2022/05/07 09:14:48;;;;;;;35.13;19.33;;;;;;;16.68;61.75;102151.63;5053366;28;20025;-76
2022/05/07 09:17:13;;;;;;;33.50;19.15;;;;;;;16.69;62.14;102153.38;5053113;28;20021;-76
2022/05/07 09:19:39;;;;;;;33.40;18.52;;;;;;;16.71;62.36;102151.38;5035470;28;20107;-76
2022/05/07 09:22:09;;;;;;;30.77;17.80;;;;;;;16.76;63.43;102143.75;5052991;28;20028;-76
2022/05/07 09:24:35;;;;;;;36.78;18.98;;;;;;;16.87;63.04;102147.47;5053086;28;20480;-76
2022/05/07 09:27:02;;;;;;;31.45;17.77;;;;;;;16.91;61.18;102154.38;5034648;28;20032;-76
2022/05/07 09:29:28;;;;;;;38.03;17.48;;;;;;;16.94;63.50;102151.41;5048451;28;20025;-62
2022/05/07 09:31:54;;;;;;;36.13;21.70;;;;;;;16.98;62.11;102147.47;5052308;28;20400;-62
2022/05/07 09:37:19;;;;;;;36.75;20.75;;;;;;;16.92;62.82;102151.53;5052845;28;20039;-62
2022/05/07 09:39:49;;;;;;;35.60;21.45;;;;;;;16.95;62.89;102153.16;5032951;28;20025;-62
2022/05/07 09:42:18;;;;;;;38.58;21.95;;;;;;;16.94;62.51;102155.03;5044082;28;20056;-62
2022/05/07 09:44:44;;;;;;;37.70;22.17;;;;;;;16.93;61.64;102150.56;5052265;28;20056;-61
2022/05/07 09:47:12;;;;;;;37.53;22.95;;;;;;;16.98;60.79;102155.63;5052019;28;20064;-61
2022/05/07 09:50:19;;;;;;;35.08;23.48;;;;;;;17.01;61.70;102152.66;5048650;28;20393;-62
2022/05/07 09:52:25;;;;;;;38.88;23.88;;;;;;;17.06;62.47;102149.59;5050065;28;20068;-62
2022/05/07 09:57:37;;;;;;;33.97;20.77;;;;;;;17.12;60.75;102154.53;5052640;28;20031;-73
2022/05/07 10:00:13;;;;;;;29.20;17.17;;;;;;;17.15;64.02;102153.44;5044856;28;20040;-73
2022/05/07 10:02:57;;;;;;;32.35;20.08;;;;;;;17.20;63.26;102151.19;5001510;28;20025;-72
2022/05/07 10:06:00;;;;;;;36.15;20.27;;;;;;;17.20;59.61;102153.91;5028665;28;20057;-73
2022/05/07 10:08:31;;;;;;;34.00;20.30;;;;;;;17.27;60.86;102147.84;5029105;28;20057;-74
2022/05/07 10:10:57;;;;;;;33.42;17.10;;;;;;;17.31;57.61;102148.47;5030937;28;20037;-74
2022/05/07 10:13:22;;;;;;;28.35;17.27;;;;;;;17.33;58.07;102146.50;5032775;28;20021;-74
2022/05/07 10:16:01;;;;;;;33.67;15.45;;;;;;;17.34;58.57;102150.94;5031768;28;20128;-74
2022/05/07 10:18:43;;;;;;;24.85;13.85;;;;;;;17.42;59.10;102150.31;5032783;28;20051;-73
2022/05/07 10:21:17;;;;;;;31.17;17.58;;;;;;;17.51;57.53;102144.13;5030132;28;20025;-74
2022/05/07 10:23:52;;;;;;;30.75;18.20;;;;;;;17.52;57.67;102140.41;5028604;28;20136;-73
2022/05/07 10:26:18;;;;;;;30.25;17.13;;;;;;;17.58;58.45;102141.75;5022282;28;20049;-74
2022/05/07 10:28:43;;;;;;;33.10;16.00;;;;;;;17.58;55.24;102137.19;5032420;28;20061;-74
2022/05/07 10:31:29;;;;;;;30.10;15.23;;;;;;;17.59;58.51;102133.47;5031859;28;20029;-73
2022/05/07 10:33:55;;;;;;;24.08;10.73;;;;;;;17.60;60.61;102134.31;5032621;28;20041;-73
2022/05/07 10:36:21;;;;;;;25.58;12.35;;;;;;;17.67;58.93;102130.13;5032605;28;20076;-73
2022/05/07 10:38:46;;;;;;;25.30;10.23;;;;;;;17.71;61.16;102126.16;5031261;28;20540;-74
2022/05/07 10:41:11;;;;;;;24.10;10.60;;;;;;;17.93;59.31;102135.28;5032651;28;20021;-74
2022/05/07 10:43:40;;;;;;;26.50;11.00;;;;;;;17.99;57.02;102132.03;5032444;28;20034;-73
2022/05/07 10:46:06;;;;;;;21.60;8.55;;;;;;;18.01;57.57;102121.91;5019920;28;20271;-74
2022/05/07 10:48:44;;;;;;;24.15;10.40;;;;;;;18.12;59.37;102121.81;5024664;28;20065;-74
2022/05/07 10:51:27;;;;;;;23.67;10.90;;;;;;;18.19;57.66;102124.88;5026891;28;20034;-74
2022/05/07 10:53:56;;;;;;;25.92;10.75;;;;;;;18.26;55.44;102119.78;5025119;28;20029;-77
2022/05/07 10:56:22;;;;;;;;;;;;;;;18.23;59.34;102125.47;5032443;28;20026;-76
2022/05/07 10:58:50;;;;;;;28.45;13.20;;;;;;;18.39;55.09;102122.31;5014224;28;19920;-76
2022/05/07 11:01:17;;;;;;;24.00;10.27;;;;;;;18.48;57.10;102122.38;5013986;28;20084;-76
2022/05/07 11:03:43;;;;;;;25.17;10.90;;;;;;;18.58;55.52;102117.00;5030702;28;20025;-75
2022/05/07 11:06:08;;;;;;;24.83;10.73;;;;;;;18.74;57.65;102113.81;5054643;28;20032;-75
2022/05/07 11:08:35;;;;;;;26.55;10.73;;;;;;;18.89;60.51;102116.16;5055532;28;20392;-76
2022/05/07 11:11:08;;;;;;;24.98;10.93;;;;;;;18.90;57.39;102115.19;5050662;28;20035;-77
2022/05/07 11:13:44;;;;;;;23.00;9.93;;;;;;;18.94;55.63;102119.38;5053680;28;20078;-76
2022/05/07 11:16:10;;;;;;;24.98;11.68;;;;;;;18.93;55.98;102114.91;5020240;28;20022;-74
2022/05/07 11:18:35;;;;;;;23.88;10.85;;;;;;;18.91;54.02;102109.59;5022035;28;20029;-74
2022/05/07 11:21:03;;;;;;;24.42;10.18;;;;;;;18.91;57.13;102112.31;5056551;28;20380;-74
2022/05/07 11:23:30;;;;;;;23.40;10.30;;;;;;;18.90;57.08;102120.63;5056965;28;20028;-74
2022/05/07 11:25:55;;;;;;;27.85;10.95;;;;;;;18.89;55.74;102117.06;5056473;28;20464;-73
2022/05/07 11:28:20;;;;;;;24.80;10.50;;;;;;;18.91;55.90;102109.59;5054046;28;20036;-73
2022/05/07 11:30:52;;;;;;;25.10;10.20;;;;;;;18.94;57.69;102111.19;5055128;28;20079;-73
2022/05/07 11:33:24;;;;;;;24.75;9.75;;;;;;;19.00;55.27;102106.03;5055915;28;20484;-73